createdAt,value
2019-03-04T00:00:06.275Z,99.99
2019-03-04T00:01:06.275Z,99.99
2019-03-04T00:02:06.269Z,99.99
2019-03-04T00:03:06.288Z,99.99
2019-03-04T00:04:06.286Z,99.99
2019-03-04T00:05:06.285Z,99.99
2019-03-04T00:06:06.254Z,99.99
2019-03-04T00:07:06.249Z,99.99
2019-03-04T00:08:06.246Z,99.99
2019-03-04T00:09:06.262Z,99.99
2019-03-04T00:10:06.242Z,99.99
2019-03-04T00:11:06.235Z,99.99
2019-03-04T00:12:06.232Z,99.99
2019-03-04T00:13:06.240Z,99.99
2019-03-04T00:14:06.230Z,99.99
2019-03-04T00:15:06.262Z,99.99
2019-03-04T00:16:06.241Z,99.99
2019-03-04T00:17:06.219Z,99.99
2019-03-04T00:18:06.213Z,99.99
2019-03-04T00:19:06.239Z,99.99
2019-03-04T00:20:06.208Z,99.99
2019-03-04T00:21:06.208Z,99.99
2019-03-04T00:22:06.201Z,99.99
2019-03-04T00:23:06.202Z,99.99
2019-03-04T00:24:06.201Z,99.99
2019-03-04T00:25:06.189Z,99.99
2019-03-04T00:26:06.185Z,99.99
2019-03-04T00:27:06.186Z,99.99
2019-03-04T00:28:06.194Z,99.99
2019-03-04T00:29:06.194Z,99.99
2019-03-04T00:30:06.174Z,99.99
2019-03-04T00:31:06.177Z,99.99
2019-03-04T00:32:06.169Z,99.99
2019-03-04T00:33:06.161Z,99.99
2019-03-04T00:34:06.161Z,99.99
2019-03-04T00:35:06.154Z,99.99
2019-03-04T00:36:06.155Z,99.99
2019-03-04T00:37:06.149Z,99.99
2019-03-04T00:38:06.144Z,99.99
2019-03-04T00:39:06.142Z,99.99
2019-03-04T00:40:06.142Z,99.99
2019-03-04T00:41:06.163Z,99.99
2019-03-04T00:42:06.132Z,99.99
2019-03-04T00:43:06.142Z,99.99
2019-03-04T00:44:06.122Z,99.99
2019-03-04T00:45:06.121Z,99.99
2019-03-04T00:46:06.135Z,99.99
2019-03-04T00:47:06.114Z,99.99
2019-03-04T00:48:06.112Z,99.99
2019-03-04T00:49:06.114Z,99.99
2019-03-04T00:50:06.109Z,99.99
2019-03-04T00:51:06.100Z,99.99
2019-03-04T00:52:06.098Z,99.99
2019-03-04T00:53:06.097Z,99.99
2019-03-04T00:54:06.095Z,99.99
2019-03-04T00:55:06.111Z,99.99
2019-03-04T00:56:06.085Z,99.99
2019-03-04T00:57:06.079Z,99.99
2019-03-04T00:58:06.078Z,99.99
2019-03-04T00:59:06.071Z,99.99
2019-03-04T01:00:06.085Z,99.99
2019-03-04T01:01:06.076Z,99.99
2019-03-04T01:02:06.083Z,99.99
2019-03-04T01:03:06.058Z,99.99
2019-03-04T01:04:06.116Z,99.99
2019-03-04T01:05:06.057Z,99.99
2019-03-04T01:06:06.054Z,99.99
2019-03-04T01:07:06.053Z,99.99
2019-03-04T01:08:06.048Z,99.99
2019-03-04T01:09:06.039Z,99.99
2019-03-04T01:10:06.045Z,99.99
2019-03-04T01:11:06.057Z,99.99
2019-03-04T01:12:06.041Z,99.99
2019-03-04T01:13:06.049Z,99.99
2019-03-04T01:14:06.054Z,99.99
2019-03-04T01:15:06.023Z,99.99
2019-03-04T01:16:06.035Z,99.99
2019-03-04T01:17:06.015Z,99.99
2019-03-04T01:18:06.011Z,99.99
2019-03-04T01:19:06.021Z,99.99
2019-03-04T01:20:06.004Z,99.99
2019-03-04T01:21:06.002Z,99.99
2019-03-04T01:22:06.010Z,99.99
2019-03-04T01:23:05.995Z,99.99
2019-03-04T01:24:05.992Z,99.99
2019-03-04T01:25:06.003Z,99.99
2019-03-04T01:26:06.011Z,99.99
2019-03-04T01:27:06.009Z,99.99
2019-03-04T01:28:05.984Z,99.99
2019-03-04T01:29:05.982Z,99.99
2019-03-04T01:30:05.973Z,99.99
2019-03-04T01:31:05.972Z,99.99
2019-03-04T01:32:05.990Z,99.99
2019-03-04T01:33:05.963Z,99.99
2019-03-04T01:34:05.964Z,99.99
2019-03-04T01:35:05.956Z,99.99
2019-03-04T01:36:05.952Z,99.99
2019-03-04T01:37:05.955Z,99.99
2019-03-04T01:38:05.962Z,99.99
2019-03-04T01:39:05.945Z,99.99
2019-03-04T01:40:05.941Z,99.99
2019-03-04T01:41:05.968Z,99.99
2019-03-04T01:42:05.937Z,99.99
2019-03-04T01:43:05.931Z,99.99
2019-03-04T01:44:05.928Z,99.99
2019-03-04T01:45:05.933Z,99.99
2019-03-04T01:46:05.925Z,99.99
2019-03-04T01:47:05.917Z,99.99
2019-03-04T01:48:05.922Z,99.99
2019-03-04T01:49:05.909Z,99.99
2019-03-04T01:50:05.907Z,99.99
2019-03-04T01:51:05.911Z,99.99
2019-03-04T01:52:05.923Z,99.99
2019-03-04T01:53:05.897Z,99.99
2019-03-04T01:54:05.917Z,99.99
2019-03-04T01:55:05.894Z,99.99
2019-03-04T01:56:05.888Z,99.99
2019-03-04T01:57:05.882Z,99.99
2019-03-04T01:58:05.880Z,99.99
2019-03-04T01:59:05.880Z,99.99
2019-03-04T02:00:05.881Z,99.99
2019-03-04T02:01:05.873Z,99.99
2019-03-04T02:02:05.914Z,99.99
2019-03-04T02:03:05.877Z,99.99
2019-03-04T02:04:05.869Z,99.99
2019-03-04T02:05:05.861Z,99.99
2019-03-04T02:06:05.857Z,99.99
2019-03-04T02:07:05.848Z,99.99
2019-03-04T02:08:05.876Z,99.99
2019-03-04T02:09:05.868Z,99.99
2019-03-04T02:10:05.864Z,99.99
2019-03-04T02:11:05.855Z,99.99
2019-03-04T02:12:05.856Z,99.99
2019-03-04T02:13:05.867Z,99.99
2019-03-04T02:14:05.825Z,99.99
2019-03-04T02:15:05.846Z,99.99
2019-03-04T02:16:05.845Z,99.99
2019-03-04T02:17:05.813Z,99.99
2019-03-04T02:18:05.814Z,99.99
2019-03-04T02:19:05.817Z,99.99
2019-03-04T02:20:05.809Z,99.99
2019-03-04T02:21:05.820Z,99.99
2019-03-04T02:22:05.799Z,99.99
2019-03-04T02:23:05.816Z,99.99
2019-03-04T02:24:05.793Z,99.99
2019-03-04T02:25:05.784Z,99.99
2019-03-04T02:26:05.783Z,99.99
2019-03-04T02:27:05.781Z,99.99
2019-03-04T02:28:05.785Z,99.99
2019-03-04T02:29:05.772Z,99.99
2019-03-04T02:30:05.770Z,99.99
2019-03-04T02:31:05.765Z,99.99
2019-03-04T02:32:05.791Z,99.99
2019-03-04T02:33:05.761Z,99.99
2019-03-04T02:34:05.754Z,99.99
2019-03-04T02:35:05.751Z,99.99
2019-03-04T02:36:05.746Z,99.99
2019-03-04T02:37:05.757Z,99.99
2019-03-04T02:38:05.783Z,99.99
2019-03-04T02:39:05.737Z,99.99
2019-03-04T02:40:05.740Z,99.99
2019-03-04T02:41:05.758Z,99.99
2019-03-04T02:42:05.731Z,99.99
2019-03-04T02:43:05.722Z,99.99
2019-03-04T02:44:05.747Z,99.99
2019-03-04T02:45:05.718Z,99.99
2019-03-04T02:46:05.714Z,99.99
2019-03-04T02:47:05.710Z,99.99
2019-03-04T02:48:05.758Z,99.99
2019-03-04T02:49:05.704Z,99.99
2019-03-04T02:50:05.702Z,99.99
2019-03-04T02:51:05.691Z,99.99
2019-03-04T02:52:05.691Z,99.99
2019-03-04T02:53:05.722Z,99.99
2019-03-04T02:54:05.682Z,99.99
2019-03-04T02:55:05.682Z,99.99
2019-03-04T02:56:05.688Z,99.99
2019-03-04T02:57:05.706Z,99.99
2019-03-04T02:58:05.691Z,99.99
2019-03-04T02:59:05.663Z,99.99
2019-03-04T03:00:05.660Z,99.99
2019-03-04T03:01:05.662Z,99.99
2019-03-04T03:02:05.656Z,99.99
2019-03-04T03:03:05.666Z,99.99
2019-03-04T03:04:05.657Z,99.99
2019-03-04T03:05:05.648Z,99.99
2019-03-04T03:06:05.642Z,99.99
2019-03-04T03:07:05.637Z,99.99
2019-03-04T03:08:05.636Z,99.99
2019-03-04T03:09:05.628Z,99.99
2019-03-04T03:10:05.635Z,99.99
2019-03-04T03:11:05.657Z,99.99
2019-03-04T03:12:05.631Z,99.99
2019-03-04T03:13:05.673Z,99.99
2019-03-04T03:14:05.615Z,99.60
2019-03-04T03:15:05.619Z,99.89
2019-03-04T03:16:05.603Z,99.13
2019-03-04T03:17:05.606Z,99.89
2019-03-04T03:18:05.603Z,99.93
2019-03-04T03:19:05.591Z,99.89
2019-03-04T03:20:05.596Z,99.60
2019-03-04T03:21:05.615Z,99.98
2019-03-04T03:22:05.581Z,98.98
2019-03-04T03:23:05.576Z,99.41
2019-03-04T03:24:05.578Z,99.41
2019-03-04T03:25:05.602Z,99.32
2019-03-04T03:26:05.568Z,99.41
2019-03-04T03:27:05.597Z,99.51
2019-03-04T03:28:05.561Z,98.94
2019-03-04T03:29:05.559Z,99.13
2019-03-04T03:30:05.562Z,99.03
2019-03-04T03:31:05.591Z,98.65
2019-03-04T03:32:05.582Z,98.55
2019-03-04T03:33:05.544Z,99.13
2019-03-04T03:34:05.573Z,98.55
2019-03-04T03:35:08.147Z,98.46
2019-03-04T03:36:05.540Z,98.94
2019-03-04T03:37:05.527Z,98.65
2019-03-04T03:38:05.526Z,98.46
2019-03-04T03:39:05.538Z,98.27
2019-03-04T03:40:05.514Z,98.08
2019-03-04T03:41:05.526Z,98.46
2019-03-04T03:42:05.511Z,98.27
2019-03-04T03:43:05.541Z,97.70
2019-03-04T03:44:05.535Z,97.89
2019-03-04T03:45:05.500Z,98.36
2019-03-04T03:46:05.566Z,98.18
2019-03-04T03:47:05.597Z,98.08
2019-03-04T03:48:05.489Z,97.99
2019-03-04T03:49:05.520Z,97.79
2019-03-04T03:50:05.477Z,97.70
2019-03-04T03:51:05.474Z,97.94
2019-03-04T03:52:05.472Z,97.46
2019-03-04T03:53:05.469Z,97.89
2019-03-04T03:54:05.464Z,97.60
2019-03-04T03:55:05.489Z,97.79
2019-03-04T03:56:05.460Z,97.70
2019-03-04T03:57:05.457Z,97.99
2019-03-04T03:58:05.453Z,97.79
2019-03-04T03:59:05.448Z,97.79
2019-03-04T04:00:05.445Z,97.46
2019-03-04T04:01:05.450Z,97.60
2019-03-04T04:02:05.439Z,97.99
2019-03-04T04:03:05.437Z,98.18
2019-03-04T04:04:05.435Z,97.79
2019-03-04T04:05:05.430Z,98.84
2019-03-04T04:06:05.425Z,98.36
2019-03-04T04:07:05.426Z,99.51
2019-03-04T04:08:05.430Z,99.32
2019-03-04T04:09:05.433Z,99.03
2019-03-04T04:10:05.507Z,99.03
2019-03-04T04:11:05.407Z,99.41
2019-03-04T04:12:05.403Z,99.22
2019-03-04T04:13:05.426Z,99.41
2019-03-04T04:14:05.437Z,99.41
2019-03-04T04:15:05.441Z,99.98
2019-03-04T04:16:05.391Z,99.98
2019-03-04T04:17:05.438Z,99.99
2019-03-04T04:18:05.382Z,99.98
2019-03-04T04:19:05.399Z,99.99
2019-03-04T04:20:05.379Z,99.98
2019-03-04T04:21:05.399Z,99.69
2019-03-04T04:22:05.393Z,99.89
2019-03-04T04:23:05.369Z,99.03
2019-03-04T04:24:05.391Z,99.13
2019-03-04T04:25:05.356Z,99.22
2019-03-04T04:26:05.360Z,99.41
2019-03-04T04:27:05.355Z,99.32
2019-03-04T04:28:05.420Z,99.32
2019-03-04T04:29:05.346Z,99.22
2019-03-04T04:30:05.356Z,98.65
2019-03-04T04:31:05.344Z,98.65
2019-03-04T04:32:05.353Z,98.94
2019-03-04T04:33:05.332Z,98.94
2019-03-04T04:34:05.326Z,98.74
2019-03-04T04:35:05.349Z,98.36
2019-03-04T04:36:06.999Z,98.46
2019-03-04T04:37:05.336Z,98.36
2019-03-04T04:38:05.313Z,98.27
2019-03-04T04:39:05.341Z,98.46
2019-03-04T04:40:05.340Z,98.65
2019-03-04T04:41:05.311Z,98.36
2019-03-04T04:42:05.312Z,98.27
2019-03-04T04:43:05.323Z,98.36
2019-03-04T04:44:05.290Z,98.55
2019-03-04T04:45:05.288Z,98.27
2019-03-04T04:46:05.287Z,98.84
2019-03-04T04:47:05.281Z,98.08
2019-03-04T04:48:05.279Z,98.65
2019-03-04T04:49:05.276Z,98.36
2019-03-04T04:50:05.303Z,97.89
2019-03-04T04:51:05.283Z,98.36
2019-03-04T04:52:05.265Z,98.65
2019-03-04T04:53:05.287Z,98.36
2019-03-04T04:54:05.304Z,98.08
2019-03-04T04:55:05.263Z,98.46
2019-03-04T04:56:05.282Z,98.46
2019-03-04T04:57:05.320Z,98.46
2019-03-04T04:58:05.243Z,98.46
2019-03-04T04:59:05.279Z,97.70
2019-03-04T05:00:05.240Z,98.46
2019-03-04T05:01:05.258Z,98.08
2019-03-04T05:02:05.238Z,98.27
2019-03-04T05:03:05.257Z,98.46
2019-03-04T05:04:05.227Z,98.36
2019-03-04T05:05:05.228Z,97.79
2019-03-04T05:06:05.221Z,98.79
2019-03-04T05:07:05.254Z,98.03
2019-03-04T05:08:05.215Z,98.03
2019-03-04T05:09:05.223Z,98.03
2019-03-04T05:10:05.206Z,98.13
2019-03-04T05:11:05.217Z,97.84
2019-03-04T05:12:05.195Z,97.75
2019-03-04T05:13:05.196Z,97.94
2019-03-04T05:14:05.194Z,97.84
2019-03-04T05:15:05.185Z,97.84
2019-03-04T05:16:05.357Z,97.75
2019-03-04T05:17:05.222Z,97.65
2019-03-04T05:18:05.181Z,98.13
2019-03-04T05:19:05.746Z,98.32
2019-03-04T05:20:05.171Z,98.46
2019-03-04T05:21:05.180Z,98.41
2019-03-04T05:22:05.170Z,98.89
2019-03-04T05:23:05.189Z,98.89
2019-03-04T05:24:05.188Z,98.60
2019-03-04T05:25:05.170Z,99.03
2019-03-04T05:26:05.169Z,99.32
2019-03-04T05:27:05.148Z,99.22
2019-03-04T05:28:05.141Z,99.18
2019-03-04T05:29:05.140Z,99.46
2019-03-04T05:30:05.295Z,99.41
2019-03-04T05:31:07.051Z,99.32
2019-03-04T05:39:11.285Z,99.99
2019-03-04T05:44:02.919Z,99.99
2019-03-04T05:45:02.926Z,99.99
2019-03-04T05:46:04.752Z,99.99
2019-03-04T05:47:02.726Z,99.99
2019-03-04T05:50:01.422Z,99.99
2019-03-04T05:50:53.963Z,99.99
2019-03-04T05:51:53.566Z,99.99
2019-03-04T05:53:09.916Z,99.99
2019-03-04T05:54:46.647Z,99.99
2019-03-04T05:55:47.078Z,99.99
2019-03-04T05:56:46.687Z,99.99
2019-03-04T05:57:47.215Z,99.99
2019-03-04T05:58:46.640Z,99.99
2019-03-04T05:59:47.032Z,99.99
2019-03-04T06:00:48.145Z,99.99
2019-03-04T06:01:48.167Z,99.99
2019-03-04T06:02:46.500Z,99.99
2019-03-04T06:03:46.442Z,99.99
2019-03-04T06:04:46.495Z,99.99
2019-03-04T06:05:46.544Z,99.99
2019-03-04T06:06:56.134Z,99.99
2019-03-04T06:08:40.085Z,99.99
2019-03-04T06:09:39.967Z,99.99
2019-03-04T06:11:32.813Z,99.99
2019-03-04T06:12:33.014Z,99.99
2019-03-04T06:14:26.412Z,99.99
2019-03-04T06:15:26.364Z,99.99
2019-03-04T06:17:19.368Z,99.99
2019-03-04T06:18:19.284Z,99.99
2019-03-04T06:20:12.163Z,99.99
2019-03-04T06:21:12.151Z,99.99
2019-03-04T06:23:05.143Z,99.89
2019-03-04T06:24:04.902Z,99.79
2019-03-04T06:25:58.452Z,99.99
2019-03-04T06:26:58.303Z,98.79
2019-03-04T06:28:52.607Z,98.51
2019-03-04T06:29:53.325Z,97.94
2019-03-04T06:30:51.963Z,98.13
2019-03-04T06:32:00.466Z,98.13
2019-03-04T06:33:45.995Z,98.13
2019-03-04T06:34:46.759Z,97.56
2019-03-04T06:36:39.537Z,97.94
2019-03-04T06:37:39.373Z,98.13
2019-03-04T06:38:39.327Z,98.13
2019-03-04T06:39:40.681Z,97.94
2019-03-04T06:40:39.110Z,98.22
2019-03-04T06:41:39.127Z,98.74
2019-03-04T06:42:40.708Z,98.13
2019-03-04T06:43:39.102Z,97.94
2019-03-04T06:44:39.116Z,97.56
2019-03-04T06:45:40.686Z,97.94
2019-03-04T06:46:40.762Z,97.70
2019-03-04T06:47:39.079Z,97.70
2019-03-04T06:48:39.182Z,98.03
2019-03-04T06:49:39.120Z,97.94
2019-03-04T06:50:39.201Z,98.13
2019-03-04T06:51:39.120Z,98.08
2019-03-04T06:52:39.100Z,98.55
2019-03-04T06:53:39.071Z,98.08
2019-03-04T06:54:39.130Z,97.99
2019-03-04T06:55:40.148Z,98.36
2019-03-04T06:56:39.079Z,98.36
2019-03-04T06:57:39.142Z,98.55
2019-03-04T06:58:39.048Z,97.79
2019-03-04T06:59:39.097Z,98.18
2019-03-04T07:00:39.195Z,98.84
2019-03-04T07:01:39.040Z,97.89
2019-03-04T07:02:39.053Z,98.55
2019-03-04T07:03:39.045Z,98.18
2019-03-04T07:04:39.028Z,98.27
2019-03-04T07:05:39.121Z,98.18
2019-03-04T07:06:39.023Z,97.84
2019-03-04T07:07:39.084Z,97.94
2019-03-04T07:08:39.056Z,97.94
2019-03-04T07:09:39.084Z,97.75
2019-03-04T07:10:39.018Z,96.75
2019-03-04T07:11:39.006Z,95.98
2019-03-04T07:12:39.004Z,95.32
2019-03-04T07:13:38.999Z,94.22
2019-03-04T07:14:38.999Z,93.65
2019-03-04T07:15:39.000Z,91.98
2019-03-04T07:16:39.000Z,89.83
2019-03-04T07:17:38.992Z,87.35
2019-03-04T07:18:38.986Z,86.05
2019-03-04T07:19:38.993Z,84.81
2019-03-04T07:20:38.996Z,85.19
2019-03-04T07:21:40.704Z,84.05
2019-03-04T07:22:38.980Z,83.95
2019-03-04T07:23:39.008Z,83.80
2019-03-04T07:24:38.985Z,83.61
2019-03-04T07:25:38.980Z,83.23
2019-03-04T07:26:38.978Z,82.37
2019-03-04T07:27:38.979Z,82.04
2019-03-04T07:28:38.975Z,82.08
2019-03-04T07:29:38.981Z,82.04
2019-03-04T07:30:38.981Z,83.14
2019-03-04T07:31:38.979Z,83.62
2019-03-04T07:32:39.021Z,83.18
2019-03-04T07:33:38.986Z,82.81
2019-03-04T07:34:39.133Z,81.47
2019-03-04T07:35:39.014Z,81.13
2019-03-04T07:36:38.999Z,80.84
2019-03-04T07:37:39.014Z,81.37
2019-03-04T07:38:38.984Z,82.14
2019-03-04T07:39:38.985Z,80.65
2019-03-04T07:40:38.984Z,79.69
2019-03-04T07:41:39.012Z,78.74
2019-03-04T07:42:39.003Z,79.50
2019-03-04T07:43:39.021Z,79.41
2019-03-04T07:44:39.005Z,80.22
2019-03-04T07:45:39.041Z,82.19
2019-03-04T07:46:39.022Z,83.67
2019-03-04T07:47:39.017Z,85.54
2019-03-04T07:48:39.027Z,86.49
2019-03-04T07:49:39.000Z,87.54
2019-03-04T07:50:39.005Z,88.21
2019-03-04T07:51:39.017Z,88.31
2019-03-04T07:52:39.002Z,89.12
2019-03-04T07:53:46.093Z,89.12
2019-03-04T07:54:39.034Z,88.84
2019-03-04T07:55:39.091Z,89.60
2019-03-04T07:56:39.004Z,89.89
2019-03-04T07:57:40.663Z,90.08
2019-03-04T07:58:39.151Z,90.08
2019-03-04T07:59:39.130Z,90.45
2019-03-04T08:00:39.018Z,91.22
2019-03-04T08:01:39.429Z,91.74
2019-03-04T08:02:50.057Z,93.17
2019-03-04T08:03:39.099Z,94.32
2019-03-04T08:12:34.806Z,97.70
2019-03-04T08:13:35.019Z,98.65
2019-03-04T08:14:34.740Z,98.94
2019-03-04T08:15:34.621Z,99.17
2019-03-04T08:16:36.152Z,99.69
2019-03-04T08:17:34.466Z,99.69
2019-03-04T08:18:34.473Z,99.89
2019-03-04T08:19:34.462Z,99.99
2019-03-04T08:20:34.452Z,99.99
2019-03-04T08:21:34.432Z,98.27
2019-03-04T08:22:34.419Z,98.74
2019-03-04T08:23:34.483Z,98.27
2019-03-04T08:24:34.422Z,98.74
2019-03-04T08:25:34.419Z,99.22
2019-03-04T08:26:34.428Z,99.03
2019-03-04T08:27:34.409Z,98.55
2019-03-04T08:28:34.409Z,98.74
2019-03-04T08:29:34.429Z,97.99
2019-03-04T08:30:34.418Z,98.46
2019-03-04T08:31:34.425Z,98.74
2019-03-04T08:32:34.413Z,97.89
2019-03-04T08:33:34.389Z,97.99
2019-03-04T08:34:34.408Z,98.18
2019-03-04T08:35:34.431Z,98.08
2019-03-04T08:36:34.388Z,98.27
2019-03-04T08:37:34.382Z,98.27
2019-03-04T08:38:34.377Z,98.08
2019-03-04T08:39:34.375Z,97.99
2019-03-04T08:40:34.370Z,98.55
2019-03-04T08:41:34.407Z,97.31
2019-03-04T08:42:34.383Z,96.84
2019-03-04T08:43:34.465Z,96.75
2019-03-04T08:44:34.363Z,95.98
2019-03-04T08:45:34.412Z,96.03
2019-03-04T08:46:34.353Z,97.08
2019-03-04T08:47:34.356Z,94.79
2019-03-04T08:48:34.356Z,94.79
2019-03-04T08:49:34.349Z,94.41
2019-03-04T08:50:34.348Z,93.65
2019-03-04T08:51:34.347Z,94.22
2019-03-04T08:52:34.336Z,94.32
2019-03-04T08:53:34.342Z,93.74
2019-03-04T08:54:34.340Z,93.65
2019-03-04T08:55:34.335Z,92.89
2019-03-04T08:56:34.328Z,92.50
2019-03-04T08:57:34.357Z,92.60
2019-03-04T08:58:34.518Z,92.41
2019-03-04T08:59:34.321Z,92.89
2019-03-04T09:00:34.318Z,92.13
2019-03-04T09:01:34.326Z,91.55
2019-03-04T09:02:34.315Z,91.65
2019-03-04T09:03:34.310Z,91.55
2019-03-04T09:04:34.307Z,91.55
2019-03-04T09:05:34.305Z,91.36
2019-03-04T09:06:34.337Z,90.79
2019-03-04T09:07:34.333Z,90.89
2019-03-04T09:08:34.311Z,90.79
2019-03-04T09:09:34.347Z,89.94
2019-03-04T09:10:34.294Z,89.65
2019-03-04T09:11:34.344Z,88.89
2019-03-04T09:12:35.923Z,88.70
2019-03-04T09:13:34.311Z,88.12
2019-03-04T09:14:34.301Z,88.22
2019-03-04T09:15:34.376Z,88.60
2019-03-04T09:16:34.336Z,88.45
2019-03-04T09:17:35.118Z,88.12
2019-03-04T09:18:34.333Z,87.69
2019-03-04T09:19:34.367Z,87.40
2019-03-04T09:20:34.292Z,86.65
2019-03-04T09:21:34.356Z,86.07
2019-03-04T09:22:34.333Z,85.78
2019-03-04T09:23:34.357Z,85.60
2019-03-04T09:24:34.289Z,85.31
2019-03-04T09:25:34.345Z,83.78
2019-03-04T09:26:34.287Z,84.36
2019-03-04T09:27:34.279Z,84.07
2019-03-04T09:28:34.293Z,83.40
2019-03-04T09:29:34.263Z,82.35
2019-03-04T09:30:34.276Z,83.12
2019-03-04T09:31:34.399Z,82.92
2019-03-04T09:32:34.246Z,82.83
2019-03-04T09:33:34.266Z,82.20
2019-03-04T09:34:34.243Z,80.96
2019-03-04T09:35:34.265Z,80.87
2019-03-04T09:36:34.243Z,80.30
2019-03-04T09:37:34.250Z,80.01
2019-03-04T09:38:34.284Z,79.91
2019-03-04T09:39:34.227Z,79.19
2019-03-04T09:40:34.223Z,76.08
2019-03-04T09:41:34.265Z,76.04
2019-03-04T09:42:34.221Z,76.71
2019-03-04T09:43:34.245Z,78.23
2019-03-04T09:44:34.321Z,78.96
2019-03-04T09:45:38.716Z,78.39
2019-03-04T09:46:34.257Z,78.39
2019-03-04T09:47:34.272Z,78.49
2019-03-04T09:48:34.276Z,78.86
2019-03-04T09:49:34.248Z,79.44
2019-03-04T09:50:34.220Z,78.58
2019-03-04T09:51:34.225Z,78.23
2019-03-04T09:52:34.222Z,77.76
2019-03-04T09:53:39.449Z,77.67
2019-03-04T09:54:34.209Z,78.14
2019-03-04T09:55:34.213Z,78.23
2019-03-04T09:56:34.212Z,77.25
2019-03-04T09:57:34.256Z,77.86
2019-03-04T09:58:34.278Z,77.95
2019-03-04T09:59:34.250Z,77.19
2019-03-04T10:00:34.208Z,76.71
2019-03-04T10:01:34.205Z,77.19
2019-03-04T10:02:34.263Z,77.47
2019-03-04T10:03:34.203Z,76.81
2019-03-04T10:04:34.254Z,76.96
2019-03-04T10:05:34.222Z,77.86
2019-03-04T10:06:34.209Z,77.95
2019-03-04T10:07:34.203Z,78.10
2019-03-04T10:08:34.210Z,77.91
2019-03-04T10:09:34.232Z,77.44
2019-03-04T10:10:34.241Z,76.67
2019-03-04T10:11:34.268Z,75.95
2019-03-04T10:12:34.263Z,75.66
2019-03-04T10:13:34.247Z,75.76
2019-03-04T10:14:34.244Z,75.37
2019-03-04T10:39:26.352Z,90.56
2019-03-04T10:40:26.436Z,90.66
2019-03-04T10:41:26.271Z,90.94
2019-03-04T10:42:26.291Z,91.03
2019-03-04T10:43:26.151Z,89.99
2019-03-04T10:44:26.166Z,88.85
2019-03-04T10:45:26.163Z,88.60
2019-03-04T10:46:26.177Z,88.99
2019-03-04T10:47:26.139Z,89.47
2019-03-04T10:48:26.171Z,89.65
2019-03-04T10:49:26.177Z,88.13
2019-03-04T10:50:26.138Z,87.46
2019-03-04T10:51:26.124Z,87.46
2019-03-04T10:52:26.119Z,85.94
2019-03-04T10:53:26.164Z,86.70
2019-03-04T10:54:26.115Z,86.70
2019-03-04T10:55:26.134Z,85.47
2019-03-04T10:56:26.111Z,86.80
2019-03-04T10:57:26.118Z,86.61
2019-03-04T10:58:26.120Z,86.42
2019-03-04T10:59:26.109Z,86.42
2019-03-04T11:00:26.094Z,86.27
2019-03-04T11:01:30.447Z,86.55
2019-03-04T11:02:26.088Z,86.08
2019-03-04T11:03:26.082Z,86.27
2019-03-04T11:04:26.080Z,86.08
2019-03-04T11:05:26.078Z,84.27
2019-03-04T11:06:26.075Z,83.32
2019-03-04T11:07:26.072Z,83.36
2019-03-04T11:08:26.088Z,82.41
2019-03-04T11:09:26.068Z,82.41
2019-03-04T11:10:26.063Z,81.46
2019-03-04T11:11:29.879Z,80.50
2019-03-04T11:12:26.066Z,80.98
2019-03-04T11:13:26.050Z,80.50
2019-03-04T11:14:26.053Z,81.46
2019-03-04T11:15:26.046Z,81.55
2019-03-04T11:16:26.058Z,80.26
2019-03-04T11:17:26.041Z,80.16
2019-03-04T11:18:26.044Z,79.40
2019-03-04T11:19:26.054Z,79.07
2019-03-04T11:20:26.067Z,79.21
2019-03-04T11:21:26.052Z,79.49
2019-03-04T11:22:26.035Z,78.92
2019-03-04T11:23:26.035Z,78.25
2019-03-04T11:24:26.033Z,78.35
2019-03-04T11:25:26.027Z,78.59
2019-03-04T11:26:26.020Z,79.07
2019-03-04T11:27:26.027Z,79.74
2019-03-04T11:28:26.015Z,79.64
2019-03-04T11:29:26.016Z,78.98
2019-03-04T11:30:26.018Z,80.31
2019-03-04T11:31:26.011Z,80.69
2019-03-04T11:32:26.006Z,80.22
2019-03-04T11:33:26.004Z,80.79
2019-03-04T11:34:26.004Z,80.88
2019-03-04T11:35:25.998Z,80.79
2019-03-04T11:36:25.997Z,80.22
2019-03-04T11:37:25.993Z,79.07
2019-03-04T11:38:25.991Z,79.74
2019-03-04T11:39:25.992Z,79.46
2019-03-04T11:40:25.992Z,78.59
2019-03-04T11:41:25.990Z,78.31
2019-03-04T11:42:25.987Z,78.88
2019-03-04T11:43:25.997Z,79.55
2019-03-04T11:44:25.979Z,79.46
2019-03-04T11:45:25.985Z,79.55
2019-03-04T11:46:25.974Z,79.27
2019-03-04T11:47:25.972Z,78.69
2019-03-04T11:48:25.971Z,77.83
2019-03-04T11:49:25.995Z,79.27
2019-03-04T11:50:25.976Z,78.98
2019-03-04T11:51:25.960Z,78.98
2019-03-04T11:52:25.973Z,78.22
2019-03-04T11:53:25.955Z,78.03
2019-03-04T11:54:25.966Z,78.22
2019-03-04T11:55:25.950Z,78.31
2019-03-04T11:56:25.953Z,77.74
2019-03-04T11:57:25.946Z,76.79
2019-03-04T11:58:25.948Z,77.87
2019-03-04T11:59:25.952Z,78.64
2019-03-04T12:00:25.950Z,77.69
2019-03-04T12:01:25.938Z,77.87
2019-03-04T12:02:25.935Z,77.20
2019-03-04T12:03:25.941Z,77.78
2019-03-04T12:04:25.930Z,78.25
2019-03-04T12:05:25.926Z,78.16
2019-03-04T12:06:25.927Z,78.88
2019-03-04T12:07:25.926Z,79.46
2019-03-04T12:08:25.924Z,79.46
2019-03-04T12:09:33.113Z,80.31
2019-03-04T12:11:18.882Z,80.22
2019-03-04T12:12:18.916Z,80.07
2019-03-04T12:14:12.341Z,80.73
2019-03-04T12:15:12.351Z,80.26
2019-03-04T12:17:05.191Z,80.83
2019-03-04T12:18:05.109Z,81.21
2019-03-04T12:19:58.611Z,79.78
2019-03-04T12:20:58.587Z,79.40
2019-03-04T12:22:52.139Z,80.26
2019-03-04T12:23:52.000Z,79.59
2019-03-04T12:25:44.960Z,79.35
2019-03-04T12:26:44.862Z,79.15
2019-03-04T12:28:38.284Z,78.77
2019-03-04T12:29:38.333Z,78.10
2019-03-04T12:31:31.185Z,77.11
2019-03-04T12:32:31.124Z,77.59
2019-03-04T12:33:31.142Z,78.25
2019-03-04T12:34:31.084Z,79.35
2019-03-04T12:35:31.085Z,78.77
2019-03-04T12:36:31.180Z,77.30
2019-03-04T12:37:31.099Z,76.73
2019-03-04T12:38:31.079Z,76.35
2019-03-04T12:39:31.051Z,76.44
2019-03-04T12:40:31.076Z,77.49
2019-03-04T12:41:31.049Z,78.03
2019-03-04T12:42:31.067Z,79.17
2019-03-04T12:43:31.054Z,79.46
2019-03-04T12:44:31.044Z,80.02
2019-03-04T12:45:34.351Z,82.12
2019-03-04T12:46:31.049Z,82.69
2019-03-04T12:47:31.060Z,84.22
2019-03-04T12:48:31.036Z,84.46
2019-03-04T12:49:31.033Z,85.32
2019-03-04T12:50:31.068Z,85.80
2019-03-04T12:51:31.029Z,86.94
2019-03-04T12:52:31.041Z,88.27
2019-03-04T12:53:37.308Z,88.23
2019-03-04T12:54:31.020Z,89.18
2019-03-04T12:55:31.017Z,90.22
2019-03-04T12:56:31.133Z,90.13
2019-03-04T12:57:31.014Z,89.65
2019-03-04T12:58:31.020Z,88.89
2019-03-04T12:59:31.009Z,89.18
2019-03-04T13:00:31.003Z,88.99
2019-03-04T13:01:31.004Z,88.32
2019-03-04T13:02:30.997Z,88.51
2019-03-04T13:03:30.998Z,89.47
2019-03-04T13:04:31.006Z,89.18
2019-03-04T13:05:30.991Z,90.03
2019-03-04T13:06:30.991Z,89.08
2019-03-04T13:07:30.982Z,89.51
2019-03-04T13:08:30.995Z,88.93
2019-03-04T13:09:30.977Z,88.27
2019-03-04T13:10:31.875Z,88.46
2019-03-04T13:11:30.979Z,87.70
2019-03-04T13:12:31.000Z,88.27
2019-03-04T13:13:30.969Z,88.18
2019-03-04T13:14:30.961Z,88.18
2019-03-04T13:15:30.962Z,88.18
2019-03-04T13:16:30.974Z,88.18
2019-03-04T13:17:30.956Z,88.70
2019-03-04T13:18:30.966Z,87.36
2019-03-04T13:19:30.971Z,86.12
2019-03-04T13:20:30.947Z,86.55
2019-03-04T13:21:30.942Z,85.74
2019-03-04T13:22:30.939Z,86.46
2019-03-04T13:23:30.937Z,87.70
2019-03-04T13:24:30.963Z,88.27
2019-03-04T13:25:30.957Z,88.37
2019-03-04T13:26:30.927Z,88.93
2019-03-04T13:27:30.924Z,88.93
2019-03-04T13:28:30.934Z,88.84
2019-03-04T13:29:30.921Z,89.03
2019-03-04T13:30:30.923Z,89.70
2019-03-04T13:31:30.936Z,88.84
2019-03-04T13:32:30.933Z,89.51
2019-03-04T13:33:30.909Z,89.89
2019-03-04T13:34:30.908Z,89.89
2019-03-04T13:35:30.903Z,89.89
2019-03-04T13:36:30.906Z,89.51
2019-03-04T13:37:30.898Z,89.41
2019-03-04T13:38:30.896Z,89.32
2019-03-04T13:39:30.904Z,89.70
2019-03-04T13:40:30.889Z,89.89
2019-03-04T13:41:30.892Z,89.98
2019-03-04T13:42:30.886Z,90.65
2019-03-04T13:43:30.946Z,90.75
2019-03-04T13:44:30.878Z,90.94
2019-03-04T13:45:30.945Z,90.75
2019-03-04T13:46:30.873Z,90.75
2019-03-04T13:47:30.870Z,91.22
2019-03-04T13:48:31.051Z,90.84
2019-03-04T13:49:30.888Z,89.55
2019-03-04T13:50:31.170Z,88.98
2019-03-04T13:51:30.893Z,88.65
2019-03-04T13:52:30.890Z,88.65
2019-03-04T13:53:30.880Z,88.56